createdAt,value
2022-11-30T00:00:23.378Z,7.15
2022-11-30T00:01:25.138Z,7.01
2022-11-30T00:02:26.738Z,6.74
2022-11-30T00:03:28.384Z,6.46
2022-11-30T00:04:29.974Z,6.24
2022-11-30T00:05:31.599Z,6.29
2022-11-30T00:06:33.126Z,6.38
2022-11-30T00:07:34.768Z,6.51
2022-11-30T00:08:36.692Z,6.59
2022-11-30T00:09:38.284Z,6.68
2022-11-30T00:10:41.011Z,6.75
2022-11-30T00:11:42.516Z,6.81
2022-11-30T00:12:44.113Z,6.87
2022-11-30T00:13:45.703Z,6.88
2022-11-30T00:14:47.526Z,6.93
2022-11-30T00:15:49.194Z,6.92
2022-11-30T00:16:50.798Z,6.96
2022-11-30T00:17:57.072Z,7.00
2022-11-30T00:18:58.670Z,7.04
2022-11-30T00:20:00.182Z,6.95
2022-11-30T00:21:02.824Z,6.83
2022-11-30T00:22:04.385Z,6.61
2022-11-30T00:23:05.969Z,6.65
2022-11-30T00:24:07.711Z,6.69
2022-11-30T00:25:09.650Z,6.76
2022-11-30T00:26:14.142Z,6.81
2022-11-30T00:27:15.644Z,6.87
2022-11-30T00:28:17.338Z,6.89
2022-11-30T00:29:19.296Z,6.90
2022-11-30T00:30:20.876Z,6.91
2022-11-30T00:31:22.573Z,6.92
2022-11-30T00:32:24.986Z,6.94
2022-11-30T00:33:26.934Z,6.98
2022-11-30T00:34:28.593Z,7.00
2022-11-30T00:35:32.068Z,7.04
2022-11-30T00:36:33.778Z,7.05
2022-11-30T00:37:35.719Z,6.98
2022-11-30T00:38:37.561Z,7.00
2022-11-30T00:39:39.089Z,7.02
2022-11-30T00:40:40.620Z,7.02
2022-11-30T00:41:42.157Z,7.02
2022-11-30T00:42:43.717Z,7.05
2022-11-30T00:43:45.732Z,7.07
2022-11-30T00:44:47.471Z,7.10
2022-11-30T00:45:49.340Z,7.13
2022-11-30T00:46:50.878Z,7.17
2022-11-30T00:47:52.391Z,7.20
2022-11-30T00:48:53.976Z,7.18
2022-11-30T00:49:55.487Z,7.16
2022-11-30T00:50:57.092Z,7.04
2022-11-30T00:51:58.595Z,6.99
2022-11-30T00:53:00.152Z,7.03
2022-11-30T00:54:01.721Z,7.06
2022-11-30T00:55:04.445Z,7.09
2022-11-30T00:56:07.550Z,7.12
2022-11-30T00:57:09.073Z,7.10
2022-11-30T00:58:11.146Z,6.96
2022-11-30T00:59:12.707Z,6.78
2022-11-30T01:00:14.609Z,6.54
2022-11-30T01:01:16.220Z,6.44
2022-11-30T01:02:17.893Z,6.49
2022-11-30T01:03:19.427Z,6.59
2022-11-30T01:04:21.365Z,6.67
2022-11-30T01:05:22.951Z,6.72
2022-11-30T01:06:24.853Z,6.76
2022-11-30T01:07:26.475Z,6.78
2022-11-30T01:08:28.058Z,6.81
2022-11-30T01:09:29.579Z,6.83
2022-11-30T01:10:33.288Z,6.88
2022-11-30T01:11:34.907Z,6.93
2022-11-30T01:12:36.473Z,6.97
2022-11-30T01:13:38.139Z,7.00
2022-11-30T01:14:39.705Z,6.93
2022-11-30T01:15:43.795Z,6.78
2022-11-30T01:16:45.508Z,6.59
2022-11-30T01:17:47.157Z,6.49
2022-11-30T01:18:49.314Z,6.46
2022-11-30T01:19:50.868Z,6.50
2022-11-30T01:20:52.482Z,6.54
2022-11-30T01:21:54.040Z,6.57
2022-11-30T01:22:55.909Z,6.65
2022-11-30T01:23:57.513Z,6.73
2022-11-30T01:24:59.113Z,6.78
2022-11-30T01:26:00.734Z,6.83
2022-11-30T01:27:02.296Z,6.87
2022-11-30T01:28:03.975Z,6.90
2022-11-30T01:29:05.555Z,6.90
2022-11-30T01:30:07.812Z,6.87
2022-11-30T01:31:11.184Z,6.77
2022-11-30T01:32:12.857Z,6.75
2022-11-30T01:33:14.423Z,6.83
2022-11-30T01:34:15.931Z,6.89
2022-11-30T01:35:17.468Z,6.88
2022-11-30T01:36:21.989Z,6.84
2022-11-30T01:37:23.490Z,6.75
2022-11-30T01:38:25.055Z,6.59
2022-11-30T01:39:26.586Z,6.47
2022-11-30T01:40:28.146Z,6.35
2022-11-30T01:41:32.190Z,6.29
2022-11-30T01:42:33.913Z,6.33
2022-11-30T01:44:04.639Z,6.33
2022-11-30T01:45:07.390Z,6.30
2022-11-30T01:46:51.023Z,6.26
2022-11-30T01:47:56.759Z,6.23
2022-11-30T01:49:05.147Z,6.24
2022-11-30T01:50:13.572Z,6.23
2022-11-30T01:51:15.306Z,6.17
2022-11-30T01:52:25.358Z,6.20
2022-11-30T01:53:27.008Z,6.26
2022-11-30T01:54:35.071Z,6.35
2022-11-30T01:55:43.238Z,6.45
2022-11-30T01:57:11.062Z,6.56
2022-11-30T01:58:16.592Z,6.58
2022-11-30T01:59:21.890Z,6.51
2022-11-30T02:00:24.132Z,6.58
2022-11-30T02:01:25.947Z,6.64
2022-11-30T02:02:53.750Z,6.65
2022-11-30T02:04:13.748Z,6.50
2022-11-30T02:05:17.417Z,6.33
2022-11-30T02:06:19.143Z,6.33
2022-11-30T02:07:21.194Z,6.41
2022-11-30T02:08:23.270Z,6.47
2022-11-30T02:09:27.024Z,6.53
2022-11-30T02:10:32.221Z,6.55
2022-11-30T02:11:33.860Z,6.61
2022-11-30T02:12:57.274Z,6.68
2022-11-30T02:14:21.518Z,6.71
2022-11-30T02:15:29.767Z,6.75
2022-11-30T02:16:43.560Z,6.71
2022-11-30T02:17:53.753Z,6.71
2022-11-30T02:19:13.685Z,6.74
2022-11-30T02:20:27.018Z,6.77
2022-11-30T02:22:09.899Z,6.84
2022-11-30T02:23:43.042Z,6.89
2022-11-30T02:25:07.321Z,6.97
2022-11-30T02:26:29.087Z,6.97
2022-11-30T02:27:45.573Z,6.95
2022-11-30T02:29:05.199Z,6.95
2022-11-30T02:30:25.367Z,6.96
2022-11-30T02:31:54.818Z,6.97
2022-11-30T02:32:59.093Z,6.93
2022-11-30T02:34:03.317Z,6.82
2022-11-30T02:35:07.799Z,6.76
2022-11-30T02:36:10.116Z,6.75
2022-11-30T02:37:14.533Z,6.71
2022-11-30T02:38:20.114Z,6.64
2022-11-30T02:39:22.502Z,6.60
2022-11-30T02:40:24.561Z,6.55
2022-11-30T02:41:26.076Z,6.41
2022-11-30T02:42:27.731Z,6.28
2022-11-30T02:43:31.703Z,6.24
2022-11-30T02:44:33.609Z,6.26
2022-11-30T02:45:44.930Z,6.24
2022-11-30T02:47:12.674Z,6.20
2022-11-30T02:48:18.501Z,6.16
2022-11-30T02:49:29.260Z,6.16
2022-11-30T02:50:39.883Z,6.07
2022-11-30T02:51:42.315Z,6.03
2022-11-30T02:52:44.738Z,6.01
2022-11-30T02:53:47.780Z,5.99
2022-11-30T02:54:49.726Z,6.05
2022-11-30T02:55:53.041Z,6.03
2022-11-30T02:56:54.564Z,6.06
2022-11-30T02:57:56.086Z,6.09
2022-11-30T02:58:57.747Z,6.11
2022-11-30T03:00:01.873Z,6.13
2022-11-30T03:01:03.440Z,6.18
2022-11-30T03:02:04.971Z,6.24
2022-11-30T03:03:06.563Z,6.30
2022-11-30T03:04:08.479Z,6.36
2022-11-30T03:05:10.351Z,6.41
2022-11-30T03:06:11.904Z,6.48
2022-11-30T03:07:13.551Z,6.52
2022-11-30T03:08:15.066Z,6.57
2022-11-30T03:09:16.571Z,6.62
2022-11-30T03:10:18.281Z,6.70
2022-11-30T03:11:19.800Z,6.72
2022-11-30T03:12:21.765Z,6.76
2022-11-30T03:13:23.308Z,6.77
2022-11-30T03:14:24.901Z,6.74
2022-11-30T03:15:27.087Z,6.74
2022-11-30T03:16:28.785Z,6.75
2022-11-30T03:17:30.363Z,6.71
2022-11-30T03:18:32.490Z,6.64
2022-11-30T03:19:34.694Z,6.57
2022-11-30T03:20:41.154Z,6.51
2022-11-30T03:21:42.718Z,6.46
2022-11-30T03:22:44.468Z,6.48
2022-11-30T03:23:46.015Z,6.50
2022-11-30T03:24:47.909Z,6.50
2022-11-30T03:25:52.278Z,6.53
2022-11-30T03:26:53.823Z,6.50
2022-11-30T03:27:55.466Z,6.45
2022-11-30T03:28:57.007Z,6.42
2022-11-30T03:29:58.521Z,6.46
2022-11-30T03:31:00.389Z,6.34
2022-11-30T03:32:01.999Z,6.19
2022-11-30T03:33:03.536Z,6.18
2022-11-30T03:34:05.171Z,6.24
2022-11-30T03:35:07.122Z,6.32
2022-11-30T03:36:11.178Z,6.38
2022-11-30T03:37:12.871Z,6.42
2022-11-30T03:38:14.527Z,6.46
2022-11-30T03:39:16.101Z,6.48
2022-11-30T03:40:18.187Z,6.50
2022-11-30T03:41:19.941Z,6.56
2022-11-30T03:42:21.507Z,6.60
2022-11-30T03:43:23.068Z,6.66
2022-11-30T03:44:24.605Z,6.69
2022-11-30T03:45:26.139Z,6.70
2022-11-30T03:46:27.815Z,6.69
2022-11-30T03:47:29.390Z,6.69
2022-11-30T03:48:31.634Z,6.74
2022-11-30T03:49:33.237Z,6.79
2022-11-30T03:50:34.758Z,6.83
2022-11-30T03:51:36.418Z,6.87
2022-11-30T03:52:37.997Z,6.90
2022-11-30T03:53:40.218Z,6.93
2022-11-30T03:54:41.957Z,6.88
2022-11-30T03:55:43.628Z,6.83
2022-11-30T03:56:45.277Z,6.78
2022-11-30T03:57:46.851Z,6.70
2022-11-30T03:58:48.430Z,6.72
2022-11-30T03:59:50.061Z,6.72
2022-11-30T04:01:24.513Z,6.72
2022-11-30T04:02:26.157Z,6.65
2022-11-30T04:03:28.389Z,6.57
2022-11-30T04:04:30.053Z,6.50
2022-11-30T04:05:31.598Z,6.41
2022-11-30T04:06:33.325Z,6.36
2022-11-30T04:07:35.127Z,6.31
2022-11-30T04:08:37.882Z,6.24
2022-11-30T04:09:39.465Z,6.27
2022-11-30T04:10:41.005Z,6.27
2022-11-30T04:11:42.690Z,6.24
2022-11-30T04:12:44.295Z,6.22
2022-11-30T04:13:45.914Z,6.23
2022-11-30T04:14:47.574Z,6.23
2022-11-30T04:15:51.293Z,6.16
2022-11-30T04:16:52.846Z,6.16
2022-11-30T04:17:54.439Z,6.26
2022-11-30T04:18:55.932Z,6.26
2022-11-30T04:19:57.493Z,6.19
2022-11-30T04:21:00.200Z,6.25
2022-11-30T04:22:01.711Z,6.18
2022-11-30T04:23:03.308Z,6.11
2022-11-30T04:24:05.207Z,6.02
2022-11-30T04:25:07.893Z,5.97
2022-11-30T04:26:13.231Z,6.03
2022-11-30T04:27:14.789Z,6.04
2022-11-30T04:28:17.015Z,6.07
2022-11-30T04:29:18.640Z,6.06
2022-11-30T04:30:20.254Z,6.08
2022-11-30T04:31:21.790Z,6.13
2022-11-30T04:32:23.355Z,6.19
2022-11-30T04:33:24.903Z,6.18
2022-11-30T04:34:28.555Z,6.15
2022-11-30T04:35:30.133Z,6.15
2022-11-30T04:36:31.691Z,6.05
2022-11-30T04:37:33.455Z,5.97
2022-11-30T04:38:36.832Z,5.98
2022-11-30T04:39:38.430Z,6.06
2022-11-30T04:40:43.986Z,6.14
2022-11-30T04:41:45.556Z,6.22
2022-11-30T04:42:47.502Z,6.35
2022-11-30T04:43:49.191Z,6.45
2022-11-30T04:44:50.726Z,6.53
2022-11-30T04:45:52.330Z,6.62
2022-11-30T04:46:54.029Z,6.69
2022-11-30T04:47:55.628Z,6.64
2022-11-30T04:48:57.143Z,6.67
2022-11-30T04:49:58.719Z,6.65
2022-11-30T04:51:08.881Z,6.64
2022-11-30T04:52:10.661Z,6.61
2022-11-30T04:53:12.586Z,6.64
2022-11-30T04:54:14.310Z,6.69
2022-11-30T04:55:19.341Z,6.75
2022-11-30T04:56:20.892Z,6.80
2022-11-30T04:57:23.894Z,6.83
2022-11-30T04:58:25.477Z,6.87
2022-11-30T04:59:27.054Z,6.90
2022-11-30T05:00:28.610Z,6.93
2022-11-30T05:01:30.243Z,6.96
2022-11-30T05:02:31.814Z,6.97
2022-11-30T05:03:33.363Z,7.00
2022-11-30T05:04:35.009Z,6.93
2022-11-30T05:05:36.624Z,6.92
2022-11-30T05:06:38.203Z,6.91
2022-11-30T05:07:40.681Z,6.91
2022-11-30T05:08:42.190Z,6.95
2022-11-30T05:09:43.880Z,6.85
2022-11-30T05:10:50.147Z,6.67
2022-11-30T05:11:54.385Z,6.53
2022-11-30T05:12:57.356Z,6.48
2022-11-30T05:13:58.974Z,6.38
2022-11-30T05:15:00.533Z,6.27
2022-11-30T05:16:02.127Z,6.21
2022-11-30T05:17:03.919Z,6.28
2022-11-30T05:18:05.506Z,6.30
2022-11-30T05:19:07.056Z,6.30
2022-11-30T05:20:08.983Z,6.30
2022-11-30T05:21:11.340Z,6.33
2022-11-30T05:22:13.006Z,6.36
2022-11-30T05:23:14.588Z,6.34
2022-11-30T05:24:16.319Z,6.25
2022-11-30T05:25:17.928Z,6.14
2022-11-30T05:26:19.516Z,6.08
2022-11-30T05:27:22.728Z,6.08
2022-11-30T05:28:24.639Z,6.09
2022-11-30T05:29:26.319Z,6.19
2022-11-30T05:30:30.357Z,6.23
2022-11-30T05:31:32.914Z,6.28
2022-11-30T05:32:35.286Z,6.30
2022-11-30T05:33:36.799Z,6.34
2022-11-30T05:34:49.988Z,6.31
2022-11-30T05:35:53.025Z,6.30
2022-11-30T05:36:54.647Z,6.31
2022-11-30T05:37:56.238Z,6.36
2022-11-30T05:38:57.763Z,6.35
2022-11-30T05:39:59.320Z,6.38
2022-11-30T05:41:02.252Z,6.39
2022-11-30T05:42:03.859Z,6.42
2022-11-30T05:43:06.193Z,6.43
2022-11-30T05:44:08.921Z,6.47
2022-11-30T05:45:11.073Z,6.51
2022-11-30T05:46:12.826Z,6.57
2022-11-30T05:47:14.516Z,6.58
2022-11-30T05:48:16.115Z,6.59
2022-11-30T05:49:17.669Z,6.56
2022-11-30T05:50:20.111Z,6.57
2022-11-30T05:51:22.570Z,6.60
2022-11-30T05:52:24.137Z,6.62
2022-11-30T05:53:26.192Z,6.62
2022-11-30T05:54:31.349Z,6.62
2022-11-30T05:55:33.567Z,6.61
2022-11-30T05:56:35.198Z,6.62
2022-11-30T05:57:38.381Z,6.61
2022-11-30T05:58:40.494Z,6.63
2022-11-30T05:59:42.085Z,6.54
2022-11-30T06:00:43.721Z,6.49
2022-11-30T06:01:45.395Z,6.53
2022-11-30T06:02:47.202Z,6.57
2022-11-30T06:03:49.603Z,6.64
2022-11-30T06:04:51.157Z,6.70
2022-11-30T06:05:52.783Z,6.68
2022-11-30T06:06:57.512Z,6.70
2022-11-30T06:07:59.701Z,6.70
2022-11-30T06:09:01.316Z,6.75
2022-11-30T06:10:02.964Z,6.77
2022-11-30T06:11:04.659Z,6.82
2022-11-30T06:12:06.474Z,6.78
2022-11-30T06:13:09.757Z,6.74
2022-11-30T06:14:11.331Z,6.80
2022-11-30T06:15:12.870Z,6.84
2022-11-30T06:16:14.563Z,6.85
2022-11-30T06:17:16.810Z,6.87
2022-11-30T06:18:18.338Z,6.87
2022-11-30T06:19:19.906Z,6.88
2022-11-30T06:20:21.428Z,6.85
2022-11-30T06:21:24.845Z,6.68
2022-11-30T06:22:26.746Z,6.45
2022-11-30T06:23:28.788Z,6.34
2022-11-30T06:24:30.314Z,6.49
2022-11-30T06:25:32.121Z,6.61
2022-11-30T06:26:33.632Z,6.71
2022-11-30T06:27:35.194Z,6.77
2022-11-30T06:28:37.106Z,6.81
2022-11-30T06:29:38.730Z,6.85
2022-11-30T06:30:40.239Z,6.86
2022-11-30T06:31:41.955Z,6.89
2022-11-30T06:32:48.484Z,6.95
2022-11-30T06:33:50.039Z,6.87
2022-11-30T06:34:51.647Z,6.71
2022-11-30T06:35:53.298Z,6.65
2022-11-30T06:36:57.801Z,6.69
2022-11-30T06:38:00.669Z,6.69
2022-11-30T06:39:02.515Z,6.57
2022-11-30T06:40:06.910Z,6.58
2022-11-30T06:41:10.467Z,6.52
2022-11-30T06:42:11.967Z,6.57
2022-11-30T06:43:13.616Z,6.63
2022-11-30T06:44:15.189Z,6.71
2022-11-30T06:45:16.774Z,6.77
2022-11-30T06:46:18.487Z,6.82
2022-11-30T06:47:20.091Z,6.89
2022-11-30T06:48:23.101Z,6.93
2022-11-30T06:49:24.672Z,6.99
2022-11-30T06:50:26.292Z,7.03
2022-11-30T06:51:27.848Z,7.06
2022-11-30T06:52:32.772Z,7.11
2022-11-30T06:53:34.719Z,7.14
2022-11-30T06:54:36.245Z,7.21
2022-11-30T06:55:38.415Z,7.26
2022-11-30T06:56:39.943Z,7.26
2022-11-30T06:57:41.667Z,7.27
2022-11-30T06:58:43.256Z,7.33
2022-11-30T06:59:44.837Z,7.29
2022-11-30T07:00:46.444Z,7.29
2022-11-30T07:01:48.345Z,7.23
2022-11-30T07:02:49.880Z,7.19
2022-11-30T07:03:51.523Z,7.23
2022-11-30T07:04:53.170Z,7.28
2022-11-30T07:05:54.715Z,7.32
2022-11-30T07:06:56.571Z,7.37
2022-11-30T07:07:58.165Z,7.41
2022-11-30T07:08:59.748Z,7.48
2022-11-30T07:10:01.320Z,7.53
2022-11-30T07:11:03.054Z,7.56
2022-11-30T07:12:05.065Z,7.62
2022-11-30T07:13:10.506Z,7.67
2022-11-30T07:14:12.077Z,7.68
2022-11-30T07:15:13.678Z,7.70
2022-11-30T07:16:15.283Z,7.75
2022-11-30T07:17:16.846Z,7.77
2022-11-30T07:18:18.365Z,7.84
2022-11-30T07:19:19.919Z,7.89
2022-11-30T07:20:21.420Z,7.91
2022-11-30T07:21:23.140Z,7.95
2022-11-30T07:22:24.677Z,8.01
2022-11-30T07:23:44.623Z,8.05
2022-11-30T07:25:04.597Z,8.11
2022-11-30T07:26:07.520Z,8.19
2022-11-30T07:27:09.081Z,8.20
2022-11-30T07:28:10.587Z,8.20
2022-11-30T07:29:12.135Z,8.25
2022-11-30T07:30:13.983Z,8.18
2022-11-30T07:31:34.337Z,8.08
2022-11-30T07:32:35.956Z,8.00
2022-11-30T07:33:37.819Z,7.95
2022-11-30T07:34:39.428Z,7.88
2022-11-30T07:35:40.978Z,7.81
2022-11-30T07:36:42.494Z,7.81
2022-11-30T07:37:44.044Z,7.83
2022-11-30T07:38:45.935Z,7.84
2022-11-30T07:39:47.458Z,7.83
2022-11-30T07:40:49.009Z,7.84
2022-11-30T07:41:50.822Z,7.86
2022-11-30T07:42:55.778Z,7.88
2022-11-30T07:43:57.440Z,7.91
2022-11-30T07:44:59.557Z,7.93
2022-11-30T07:46:01.747Z,7.98
2022-11-30T07:47:03.419Z,8.03
2022-11-30T07:48:04.979Z,8.10
2022-11-30T07:49:07.855Z,8.16
2022-11-30T07:50:09.902Z,8.16
2022-11-30T07:51:20.648Z,8.10
2022-11-30T07:52:22.175Z,8.17
2022-11-30T07:53:23.858Z,8.17
2022-11-30T07:54:25.437Z,8.20
2022-11-30T07:55:27.037Z,8.20
2022-11-30T07:56:29.541Z,8.21
2022-11-30T07:57:31.085Z,8.29
2022-11-30T07:58:33.356Z,8.33
2022-11-30T07:59:34.902Z,8.39
2022-11-30T08:00:39.903Z,8.48
2022-11-30T08:01:41.586Z,8.50
2022-11-30T08:02:43.143Z,8.51
2022-11-30T08:03:45.280Z,8.55
2022-11-30T08:04:47.060Z,8.55
2022-11-30T08:05:49.079Z,8.59
2022-11-30T08:06:50.680Z,8.63
2022-11-30T08:07:53.722Z,8.63
2022-11-30T08:08:58.451Z,8.64
2022-11-30T08:09:59.938Z,8.62
2022-11-30T08:11:02.189Z,8.46
2022-11-30T08:12:03.952Z,8.39
2022-11-30T08:13:05.474Z,8.23
2022-11-30T08:14:07.038Z,8.10
2022-11-30T08:15:19.803Z,7.92
2022-11-30T08:16:24.702Z,7.88
2022-11-30T08:17:26.281Z,7.85
2022-11-30T08:18:27.952Z,7.88
2022-11-30T08:19:29.475Z,7.99
2022-11-30T08:20:31.065Z,7.99
2022-11-30T08:21:32.674Z,7.98
2022-11-30T08:22:34.722Z,7.90
2022-11-30T08:23:41.200Z,7.92
2022-11-30T08:24:42.972Z,7.83
2022-11-30T08:25:44.511Z,7.70
2022-11-30T08:26:46.002Z,7.77
2022-11-30T08:27:47.559Z,7.91
2022-11-30T08:28:51.097Z,8.05
2022-11-30T08:29:52.650Z,8.16
2022-11-30T08:30:54.193Z,8.26
2022-11-30T08:31:55.730Z,8.34
2022-11-30T08:32:57.352Z,8.42
2022-11-30T08:34:01.278Z,8.45
2022-11-30T08:35:02.982Z,8.51
2022-11-30T08:36:11.777Z,8.49
2022-11-30T08:37:13.344Z,8.53
2022-11-30T08:38:14.871Z,8.48
2022-11-30T08:39:16.401Z,8.50
2022-11-30T08:40:18.075Z,8.56
2022-11-30T08:41:21.781Z,8.50
2022-11-30T08:42:23.363Z,8.43
2022-11-30T08:43:24.883Z,8.21
2022-11-30T08:44:27.709Z,8.00
2022-11-30T08:45:29.262Z,7.95
2022-11-30T08:47:54.556Z,8.10
2022-11-30T08:49:13.095Z,8.22
2022-11-30T08:50:17.738Z,8.36
2022-11-30T08:51:20.859Z,8.41
2022-11-30T08:52:22.372Z,8.43
2022-11-30T08:53:23.889Z,8.50
2022-11-30T08:54:27.370Z,8.57
2022-11-30T08:55:28.943Z,8.55
2022-11-30T08:56:30.623Z,8.39
2022-11-30T08:57:32.237Z,8.12
2022-11-30T08:58:35.972Z,7.99
2022-11-30T08:59:37.834Z,7.95
2022-11-30T09:00:39.402Z,7.97
2022-11-30T09:01:42.697Z,7.99
2022-11-30T09:02:44.333Z,7.98
2022-11-30T09:03:47.635Z,8.05
2022-11-30T09:04:51.085Z,8.19
2022-11-30T09:05:52.688Z,8.11
2022-11-30T09:06:58.972Z,7.99
2022-11-30T09:08:00.867Z,7.84
2022-11-30T09:09:02.692Z,7.82
2022-11-30T09:10:04.569Z,7.82
2022-11-30T09:11:15.035Z,7.85
2022-11-30T09:12:16.736Z,7.87
2022-11-30T09:13:18.304Z,7.89
2022-11-30T09:14:19.878Z,7.96
2022-11-30T09:15:21.434Z,8.05
2022-11-30T09:16:24.172Z,8.17
2022-11-30T09:17:26.195Z,8.23
2022-11-30T09:18:27.750Z,8.29
2022-11-30T09:19:29.454Z,8.36
2022-11-30T09:20:31.039Z,8.47
2022-11-30T09:21:32.594Z,8.56
2022-11-30T09:22:34.150Z,8.62
2022-11-30T09:23:36.848Z,8.63
2022-11-30T09:24:38.444Z,8.59
2022-11-30T09:25:40.212Z,8.53
2022-11-30T09:26:41.773Z,8.57
2022-11-30T09:27:43.333Z,8.63
2022-11-30T09:28:46.260Z,8.68
2022-11-30T09:29:47.782Z,8.74
2022-11-30T09:30:49.415Z,8.69
2022-11-30T09:31:50.947Z,8.68
2022-11-30T09:32:52.469Z,8.69
2022-11-30T09:33:56.616Z,8.77
2022-11-30T09:34:58.139Z,8.71
2022-11-30T09:36:02.692Z,8.70
2022-11-30T09:37:04.254Z,8.66
2022-11-30T09:38:05.762Z,8.64
2022-11-30T09:39:12.842Z,8.62
2022-11-30T09:40:15.922Z,8.48
2022-11-30T09:41:47.705Z,8.34
2022-11-30T09:43:09.199Z,8.42
2022-11-30T09:44:21.002Z,8.50
2022-11-30T09:45:30.351Z,8.43
2022-11-30T09:46:52.526Z,8.43
2022-11-30T09:48:13.826Z,8.45
2022-11-30T09:49:34.970Z,8.29
2022-11-30T09:50:45.041Z,8.23
2022-11-30T09:51:48.546Z,8.21
2022-11-30T09:52:54.721Z,8.13
2022-11-30T09:54:02.686Z,8.10
2022-11-30T09:55:09.511Z,8.12
2022-11-30T09:56:30.305Z,8.28
2022-11-30T09:57:31.877Z,8.40
2022-11-30T09:58:50.765Z,8.49
2022-11-30T09:59:56.905Z,8.54
2022-11-30T10:01:02.478Z,8.57
2022-11-30T10:02:17.333Z,8.70
2022-11-30T10:03:22.030Z,8.79
2022-11-30T10:04:26.923Z,8.79
2022-11-30T10:05:39.160Z,8.72
2022-11-30T10:06:54.939Z,8.56
2022-11-30T10:08:20.635Z,8.48
2022-11-30T10:09:27.951Z,8.49
2022-11-30T10:10:33.336Z,8.63
2022-11-30T10:11:55.124Z,8.77
2022-11-30T10:13:29.034Z,8.88
2022-11-30T10:14:53.900Z,8.80
2022-11-30T10:16:13.927Z,8.87
2022-11-30T10:17:21.423Z,8.89
2022-11-30T10:18:22.931Z,8.88
2022-11-30T10:19:39.642Z,8.99
2022-11-30T10:20:55.190Z,9.12
2022-11-30T10:22:07.945Z,9.26
2022-11-30T10:23:21.858Z,9.34
2022-11-30T10:24:57.029Z,9.30
2022-11-30T10:26:14.917Z,9.16
2022-11-30T10:27:33.512Z,9.19
2022-11-30T10:28:51.029Z,9.21
2022-11-30T10:29:55.389Z,9.18
2022-11-30T10:30:57.318Z,9.11
2022-11-30T10:32:00.895Z,9.06
2022-11-30T10:33:13.739Z,9.09
2022-11-30T10:34:23.598Z,9.20
2022-11-30T10:35:48.895Z,9.18
2022-11-30T10:37:13.030Z,9.17
2022-11-30T10:38:20.086Z,9.31
2022-11-30T10:39:34.678Z,9.37
2022-11-30T10:40:50.965Z,9.44
2022-11-30T10:42:15.137Z,9.29
2022-11-30T10:43:34.614Z,9.18
2022-11-30T10:44:40.696Z,9.15
2022-11-30T10:45:48.543Z,9.24
2022-11-30T10:47:02.981Z,9.37
2022-11-30T10:48:16.959Z,9.44
2022-11-30T10:49:19.682Z,9.43
2022-11-30T10:50:25.703Z,9.50
2022-11-30T10:51:27.864Z,9.57
2022-11-30T10:52:34.778Z,9.69
2022-11-30T10:53:37.142Z,9.79
2022-11-30T10:54:38.736Z,9.85
2022-11-30T10:55:44.446Z,9.84
2022-11-30T10:56:46.648Z,9.81
2022-11-30T10:57:51.100Z,9.80
2022-11-30T10:59:03.146Z,9.64
2022-11-30T11:00:06.822Z,9.59
2022-11-30T11:01:11.209Z,9.56
2022-11-30T11:02:40.972Z,9.47
2022-11-30T11:03:42.701Z,9.52
2022-11-30T11:04:44.321Z,9.61
2022-11-30T11:05:46.434Z,9.71
2022-11-30T11:06:55.332Z,9.79
2022-11-30T11:08:06.314Z,9.81
2022-11-30T11:09:29.907Z,9.76
2022-11-30T11:10:31.435Z,9.88
2022-11-30T11:11:37.263Z,9.95
2022-11-30T11:12:39.400Z,10.04
2022-11-30T11:13:43.601Z,10.07
2022-11-30T11:14:45.629Z,10.08
2022-11-30T11:16:01.051Z,10.13
2022-11-30T11:17:06.022Z,10.18
2022-11-30T11:18:16.640Z,10.15
2022-11-30T11:19:41.932Z,10.24
2022-11-30T11:20:45.158Z,10.30
2022-11-30T11:21:50.463Z,10.37
2022-11-30T11:22:52.038Z,10.47
2022-11-30T11:23:55.558Z,10.42
2022-11-30T11:25:23.412Z,10.36
2022-11-30T11:26:27.384Z,10.36
2022-11-30T11:27:32.508Z,10.35
2022-11-30T11:28:43.419Z,10.38
2022-11-30T11:29:45.338Z,10.40
2022-11-30T11:30:47.643Z,10.38
2022-11-30T11:31:50.146Z,10.45
2022-11-30T11:33:02.237Z,10.53
2022-11-30T11:34:05.838Z,10.47
2022-11-30T11:35:39.658Z,10.51
2022-11-30T11:36:41.709Z,10.61
2022-11-30T11:37:51.464Z,10.61
2022-11-30T11:38:53.073Z,10.63
2022-11-30T11:40:16.031Z,10.73
2022-11-30T11:41:31.672Z,10.86
2022-11-30T11:42:54.050Z,10.83
2022-11-30T11:43:58.147Z,10.69
2022-11-30T11:45:01.196Z,10.58
2022-11-30T11:46:13.146Z,10.47
2022-11-30T11:47:26.488Z,10.48
2022-11-30T11:48:30.243Z,10.42
2022-11-30T11:49:37.082Z,10.35
2022-11-30T11:52:04.000Z,10.30
2022-11-30T11:53:38.070Z,10.32
2022-11-30T11:54:58.813Z,10.31
2022-11-30T11:56:08.047Z,10.27
2022-11-30T11:57:15.992Z,10.26
2022-11-30T11:58:27.948Z,10.28
2022-11-30T12:00:15.597Z,10.25
2022-11-30T12:01:41.230Z,10.31
2022-11-30T12:03:11.444Z,10.33
2022-11-30T12:04:40.110Z,10.37
2022-11-30T12:05:50.308Z,10.41
2022-11-30T12:06:54.138Z,10.38
2022-11-30T12:08:16.972Z,10.45
2022-11-30T12:09:25.411Z,10.43
2022-11-30T12:10:52.544Z,10.46
2022-11-30T12:11:54.944Z,10.44
2022-11-30T12:12:58.280Z,10.42
2022-11-30T12:14:01.672Z,10.41
2022-11-30T12:15:03.666Z,10.37
2022-11-30T12:16:42.653Z,10.31
2022-11-30T12:18:03.029Z,10.27
2022-11-30T12:20:54.160Z,10.19
2022-11-30T12:22:29.797Z,10.21
2022-11-30T12:23:49.941Z,10.19
2022-11-30T12:25:20.970Z,10.13
2022-11-30T12:26:34.740Z,10.14
2022-11-30T12:27:38.913Z,10.15
2022-11-30T12:29:05.438Z,10.05
2022-11-30T12:30:10.073Z,10.05
2022-11-30T12:31:17.269Z,10.04
2022-11-30T12:33:10.604Z,10.05
2022-11-30T12:34:50.547Z,10.12
2022-11-30T12:36:02.203Z,10.05
2022-11-30T12:37:14.040Z,9.98
2022-11-30T12:38:31.935Z,10.07
2022-11-30T12:39:51.245Z,10.01
2022-11-30T12:40:58.495Z,10.04
2022-11-30T12:42:13.811Z,10.09
2022-11-30T12:43:31.116Z,10.03
2022-11-30T12:44:56.037Z,10.02
2022-11-30T12:46:28.324Z,9.99
2022-11-30T12:48:14.039Z,9.98
2022-11-30T12:49:27.723Z,9.88
2022-11-30T12:50:51.020Z,9.94
2022-11-30T12:51:58.625Z,9.93
2022-11-30T12:53:12.112Z,9.90
2022-11-30T12:54:52.278Z,9.91
2022-11-30T12:56:02.901Z,9.90
2022-11-30T12:57:20.550Z,9.84
2022-11-30T12:58:22.133Z,9.72
2022-11-30T12:59:48.872Z,9.69
2022-11-30T13:01:14.675Z,9.66
2022-11-30T13:02:46.152Z,9.64
2022-11-30T13:04:19.007Z,9.70
2022-11-30T13:05:46.207Z,9.66
2022-11-30T13:07:20.113Z,9.69
2022-11-30T13:08:27.023Z,9.69
2022-11-30T13:09:38.564Z,9.61
2022-11-30T13:10:46.027Z,9.62
2022-11-30T13:11:55.399Z,9.59
2022-11-30T13:13:00.273Z,9.61
2022-11-30T13:14:02.534Z,9.62
2022-11-30T13:15:18.409Z,9.63
2022-11-30T13:16:23.248Z,9.61
2022-11-30T13:17:26.764Z,9.60
2022-11-30T13:18:30.328Z,9.63
2022-11-30T13:19:55.819Z,9.67
2022-11-30T13:21:07.128Z,9.64
2022-11-30T13:22:29.120Z,9.57
2022-11-30T13:23:46.024Z,9.53
2022-11-30T13:24:55.610Z,9.48
2022-11-30T13:26:14.954Z,9.48
2022-11-30T13:27:44.842Z,9.43
2022-11-30T13:28:52.998Z,9.43
2022-11-30T13:30:04.151Z,9.35
2022-11-30T13:31:11.501Z,9.32
2022-11-30T13:32:48.629Z,9.31
2022-11-30T13:33:38.812Z,9.27
2022-11-30T13:34:40.405Z,9.26
2022-11-30T13:35:42.489Z,9.25
2022-11-30T13:36:45.602Z,9.20
2022-11-30T13:38:35.649Z,9.20
2022-11-30T13:39:55.757Z,9.18
2022-11-30T13:41:03.170Z,9.15
2022-11-30T13:42:07.621Z,9.16
2022-11-30T13:43:19.687Z,9.13
2022-11-30T13:44:25.893Z,9.19
2022-11-30T13:45:33.748Z,9.17
2022-11-30T13:46:35.428Z,9.14
2022-11-30T13:47:38.553Z,9.15
2022-11-30T13:48:42.932Z,9.13
2022-11-30T13:49:45.261Z,9.13
2022-11-30T13:50:48.976Z,9.14
2022-11-30T13:52:20.057Z,9.15
2022-11-30T13:53:23.153Z,9.15
2022-11-30T13:54:50.972Z,9.16
2022-11-30T13:55:57.148Z,9.16
2022-11-30T13:56:58.679Z,9.15
2022-11-30T13:58:00.136Z,9.17
2022-11-30T13:59:20.184Z,9.19
2022-11-30T14:00:30.957Z,9.14
2022-11-30T14:02:54.526Z,9.12
2022-11-30T14:04:14.472Z,9.08
2022-11-30T14:05:19.363Z,9.05
2022-11-30T14:06:39.115Z,8.99
2022-11-30T14:07:40.765Z,8.96
2022-11-30T14:08:42.338Z,8.95
2022-11-30T14:09:45.777Z,8.98
2022-11-30T14:10:54.646Z,9.03
2022-11-30T14:11:56.234Z,9.03
2022-11-30T14:13:03.421Z,9.01
2022-11-30T14:14:45.746Z,9.02
2022-11-30T14:15:47.867Z,9.02
2022-11-30T14:16:49.678Z,8.95
2022-11-30T14:17:57.053Z,8.94
2022-11-30T14:18:58.780Z,8.91
2022-11-30T14:20:09.214Z,8.92
2022-11-30T14:21:16.726Z,8.94
2022-11-30T14:22:18.570Z,8.89
2022-11-30T14:23:32.092Z,8.89
2022-11-30T14:24:34.075Z,8.88
2022-11-30T14:25:36.023Z,8.87
2022-11-30T14:26:43.516Z,8.86
2022-11-30T14:27:45.501Z,8.86
2022-11-30T14:28:53.913Z,8.89
2022-11-30T14:30:01.898Z,8.86
2022-11-30T14:31:08.048Z,8.86
2022-11-30T14:32:35.379Z,8.85
2022-11-30T14:34:02.413Z,8.86
2022-11-30T14:35:09.614Z,8.84
2022-11-30T14:36:12.294Z,8.81
2022-11-30T14:37:26.591Z,8.81
2022-11-30T14:38:33.166Z,8.81
2022-11-30T14:39:37.597Z,8.80
2022-11-30T14:40:50.804Z,8.77
2022-11-30T14:41:53.174Z,8.70
2022-11-30T14:43:01.206Z,8.70
2022-11-30T14:44:12.816Z,8.69
2022-11-30T14:45:20.370Z,8.70